createdAt,value
2019-05-12T00:02:14.792Z,10.19
2019-05-12T00:07:18.021Z,10.04
2019-05-12T00:12:20.158Z,10.10
2019-05-12T00:17:24.655Z,10.24
2019-05-12T00:22:31.034Z,9.89
2019-05-12T00:27:33.792Z,10.04
2019-05-12T00:32:35.650Z,9.97
2019-05-12T00:37:38.329Z,9.88
2019-05-12T00:42:41.974Z,9.84
2019-05-12T00:47:43.697Z,9.72
2019-05-12T00:52:45.729Z,9.65
2019-05-12T00:57:48.497Z,9.53
2019-05-12T01:02:53.162Z,9.53
2019-05-12T01:07:58.363Z,9.51
2019-05-12T01:13:00.976Z,9.42
2019-05-12T01:18:09.463Z,9.42
2019-05-12T01:23:23.051Z,9.32
2019-05-12T01:28:25.165Z,9.22
2019-05-12T01:33:27.731Z,9.50
2019-05-12T01:38:29.812Z,9.38
2019-05-12T01:43:32.173Z,9.49
2019-05-12T01:48:37.768Z,9.49
2019-05-12T01:53:40.354Z,9.47
2019-05-12T01:58:42.310Z,9.55
2019-05-12T02:03:44.227Z,9.34
2019-05-12T02:08:51.318Z,9.45
2019-05-12T02:13:53.915Z,9.63
2019-05-12T02:18:58.176Z,9.45
2019-05-12T02:23:59.831Z,9.45
2019-05-12T02:29:01.745Z,9.53
2019-05-12T02:34:05.906Z,9.43
2019-05-12T02:39:08.083Z,9.28
2019-05-12T02:44:10.202Z,9.23
2019-05-12T02:49:14.636Z,8.99
2019-05-12T02:54:16.623Z,9.06
2019-05-12T02:59:21.278Z,8.79
2019-05-12T03:04:28.842Z,8.79
2019-05-12T03:09:30.936Z,8.62
2019-05-12T03:14:39.353Z,8.64
2019-05-12T03:19:36.631Z,8.71
2019-05-12T03:24:38.776Z,8.53
2019-05-12T03:29:40.562Z,8.62
2019-05-12T03:34:47.418Z,8.60
2019-05-12T03:39:48.542Z,7.99
2019-05-12T03:44:54.750Z,8.06
2019-05-12T03:49:56.507Z,8.09
2019-05-12T03:54:58.587Z,7.86
2019-05-12T04:00:00.412Z,7.84
2019-05-12T04:05:05.194Z,7.83
2019-05-12T04:10:07.177Z,7.67
2019-05-12T04:15:16.382Z,7.74
2019-05-12T04:20:20.899Z,8.20
2019-05-12T04:25:25.597Z,8.33
2019-05-12T04:30:27.525Z,8.26
2019-05-12T04:35:29.911Z,8.24
2019-05-12T04:40:36.833Z,8.65
2019-05-12T04:45:38.797Z,8.86
2019-05-12T04:50:40.625Z,8.86
2019-05-12T04:55:44.480Z,9.13
2019-05-12T05:00:46.612Z,9.12
2019-05-12T05:05:48.719Z,9.72
2019-05-12T05:10:50.649Z,10.41
2019-05-12T05:15:55.123Z,10.11
2019-05-12T05:20:56.916Z,10.01
2019-05-12T05:26:03.155Z,10.01
2019-05-12T05:31:04.739Z,10.11
2019-05-12T05:36:15.083Z,10.50
2019-05-12T05:41:17.258Z,11.84
2019-05-12T05:46:19.295Z,11.27
2019-05-12T05:51:21.252Z,12.10
2019-05-12T05:56:38.417Z,13.53
2019-05-12T06:01:27.785Z,14.66
2019-05-12T06:06:29.932Z,17.56
2019-05-12T06:11:34.505Z,18.63
2019-05-12T06:16:36.969Z,15.97
2019-05-12T06:21:45.810Z,18.36
2019-05-12T06:26:59.967Z,17.63
2019-05-12T06:31:54.149Z,17.70
2019-05-12T06:37:02.395Z,16.98
2019-05-12T06:42:11.607Z,19.14
2019-05-12T06:47:08.114Z,17.79
2019-05-12T06:52:08.527Z,16.16
2019-05-12T06:57:22.092Z,13.70
2019-05-12T07:02:16.293Z,14.19
2019-05-12T07:07:18.297Z,16.41
2019-05-12T07:12:24.873Z,17.87
2019-05-12T07:17:43.599Z,18.41
2019-05-12T07:22:44.439Z,17.89
2019-05-12T07:27:53.650Z,18.65
2019-05-12T07:32:51.121Z,17.19
2019-05-12T07:37:56.066Z,17.12
2019-05-12T07:43:09.848Z,17.65
2019-05-12T07:48:11.344Z,17.58
2019-05-12T07:53:14.491Z,16.24
2019-05-12T07:58:19.018Z,14.74
2019-05-12T08:03:21.381Z,13.39
2019-05-12T08:08:23.821Z,15.20
2019-05-12T08:13:25.725Z,14.68
2019-05-12T08:18:30.759Z,15.21
2019-05-12T08:23:33.729Z,15.80
2019-05-12T08:28:40.386Z,15.49
2019-05-12T08:33:43.472Z,14.92
2019-05-12T08:38:45.198Z,16.25
2019-05-12T08:43:54.523Z,16.72
2019-05-12T08:48:56.630Z,14.33
2019-05-12T08:54:02.351Z,14.85
2019-05-12T08:59:04.443Z,14.13
2019-05-12T09:04:11.136Z,14.44
2019-05-12T09:09:13.949Z,14.89
2019-05-12T09:14:18.648Z,15.07
2019-05-12T09:19:26.679Z,15.93
2019-05-12T09:24:27.819Z,16.01
2019-05-12T09:29:35.119Z,15.70
2019-05-12T09:34:37.256Z,15.49
2019-05-12T09:39:42.810Z,14.40
2019-05-12T09:44:43.899Z,14.74
2019-05-12T09:49:45.885Z,14.90
2019-05-12T09:54:48.975Z,14.65
2019-05-12T09:59:57.252Z,15.10
2019-05-12T10:04:56.433Z,14.00
2019-05-12T10:09:59.184Z,14.28
2019-05-12T10:15:04.243Z,15.22
2019-05-12T10:20:06.930Z,14.99
2019-05-12T10:25:14.460Z,16.26
2019-05-12T10:30:17.246Z,14.03
2019-05-12T10:35:21.414Z,14.69
2019-05-12T10:40:24.810Z,14.35
2019-05-12T10:45:28.947Z,15.56
2019-05-12T10:50:31.115Z,16.27
2019-05-12T10:55:34.933Z,14.63
2019-05-12T11:00:36.965Z,14.23
2019-05-12T11:05:38.915Z,14.57
2019-05-12T11:10:40.896Z,14.60
2019-05-12T11:15:47.780Z,15.27
2019-05-12T11:20:46.653Z,15.65
2019-05-12T11:25:50.466Z,15.89
2019-05-12T11:30:52.407Z,15.31
2019-05-12T11:35:54.495Z,15.17
2019-05-12T11:40:56.459Z,15.48
2019-05-12T11:45:58.336Z,16.20
2019-05-12T11:51:03.895Z,16.75
2019-05-12T11:56:07.785Z,15.49
2019-05-12T12:01:13.487Z,15.99
2019-05-12T12:06:18.816Z,15.58
2019-05-12T12:11:25.572Z,15.31
2019-05-12T12:16:26.010Z,15.81
2019-05-12T12:21:31.804Z,15.15
2019-05-12T12:26:38.781Z,16.01
2019-05-12T12:31:48.172Z,16.52
2019-05-12T12:36:50.095Z,16.03
2019-05-12T12:42:00.064Z,15.98
2019-05-12T12:47:00.131Z,16.09
2019-05-12T12:52:03.283Z,15.38
2019-05-12T12:57:09.786Z,15.51
2019-05-12T13:02:11.574Z,16.08
2019-05-12T13:07:19.763Z,15.94
2019-05-12T13:12:21.687Z,15.73
2019-05-12T13:17:29.047Z,15.66
2019-05-12T13:22:29.576Z,15.75
2019-05-12T13:27:36.811Z,15.46
2019-05-12T13:32:39.193Z,15.76
2019-05-12T13:37:43.270Z,15.59
2019-05-12T13:42:46.427Z,16.21
2019-05-12T13:47:53.054Z,16.37
2019-05-12T13:52:54.627Z,16.50
2019-05-12T13:57:57.882Z,15.70
2019-05-12T14:03:04.773Z,15.25
2019-05-12T14:08:05.771Z,15.92
2019-05-12T14:13:07.973Z,15.98
2019-05-12T14:18:16.463Z,14.94
2019-05-12T14:23:16.050Z,15.93
2019-05-12T14:28:18.009Z,16.15
2019-05-12T14:33:19.868Z,15.19
2019-05-12T14:38:27.487Z,14.70
2019-05-12T14:43:29.031Z,15.01
2019-05-12T14:48:30.949Z,14.88
2019-05-12T14:53:38.339Z,14.51
2019-05-12T14:58:40.376Z,14.85
2019-05-12T15:03:47.532Z,14.80
2019-05-12T15:08:46.039Z,14.56
2019-05-12T15:13:47.951Z,14.70
2019-05-12T15:18:50.278Z,14.82
2019-05-12T15:23:53.313Z,14.88
2019-05-12T15:28:57.283Z,14.85
2019-05-12T15:33:58.971Z,14.56
2019-05-12T15:39:00.890Z,14.67
2019-05-12T15:44:06.501Z,14.68
2019-05-12T15:49:08.852Z,14.88
2019-05-12T15:54:14.806Z,14.67
2019-05-12T15:59:17.365Z,14.65
2019-05-12T16:04:19.414Z,14.72
2019-05-12T16:09:23.670Z,14.66
2019-05-12T16:14:25.157Z,14.88
2019-05-12T16:19:27.044Z,14.86
2019-05-12T16:24:29.013Z,14.91
2019-05-12T16:29:30.947Z,14.84
2019-05-12T16:34:36.143Z,14.83
2019-05-12T16:39:44.315Z,14.93
2019-05-12T16:44:43.927Z,14.62
2019-05-12T16:49:45.600Z,14.87
2019-05-12T16:54:47.534Z,14.74
2019-05-12T16:59:55.998Z,14.46
2019-05-12T17:04:54.455Z,14.71
2019-05-12T17:10:03.098Z,14.26
2019-05-12T17:15:04.656Z,14.27
2019-05-12T17:20:09.925Z,14.27
2019-05-12T17:25:16.985Z,14.49
2019-05-12T17:30:19.718Z,14.31
2019-05-12T17:35:29.372Z,14.28
2019-05-12T17:40:25.461Z,14.23
2019-05-12T17:45:27.533Z,13.93
2019-05-12T17:50:29.433Z,13.82
2019-05-12T17:55:31.352Z,13.80
2019-05-12T18:00:33.686Z,13.66
2019-05-12T18:05:37.146Z,13.75
2019-05-12T18:10:39.600Z,13.53
2019-05-12T18:15:41.582Z,13.28
2019-05-12T18:20:44.491Z,13.11
2019-05-12T18:25:46.795Z,12.84
2019-05-12T18:30:50.949Z,12.90
2019-05-12T18:35:54.477Z,12.97
2019-05-12T18:40:56.907Z,13.15
2019-05-12T18:46:05.454Z,12.51
2019-05-12T18:51:11.870Z,12.85
2019-05-12T18:56:10.423Z,12.65
2019-05-12T19:01:13.915Z,12.32
2019-05-12T19:06:16.360Z,12.44
2019-05-12T19:11:31.851Z,12.26
2019-05-12T19:16:27.858Z,12.28
2019-05-12T19:21:30.863Z,12.13
2019-05-12T19:26:38.308Z,11.86
2019-05-12T19:31:43.571Z,11.63
2019-05-12T19:36:45.063Z,11.75
2019-05-12T19:41:45.161Z,11.56
2019-05-12T19:46:49.532Z,11.58
2019-05-12T19:51:54.280Z,11.49
2019-05-12T19:56:55.649Z,11.51
2019-05-12T20:02:00.475Z,11.35
2019-05-12T20:07:03.686Z,11.20
2019-05-12T20:12:19.229Z,11.03
2019-05-12T20:17:21.377Z,11.26
2019-05-12T20:22:25.212Z,11.32
2019-05-12T20:27:27.382Z,11.08
2019-05-12T20:32:31.042Z,11.06
2019-05-12T20:37:33.656Z,10.84
2019-05-12T20:42:48.266Z,10.85
2019-05-12T20:47:45.510Z,10.91
2019-05-12T20:52:52.231Z,10.91
2019-05-12T20:57:54.386Z,10.83
2019-05-12T21:02:56.025Z,10.77
2019-05-12T21:08:03.304Z,10.47
2019-05-12T21:13:03.813Z,10.42
2019-05-12T21:18:07.504Z,9.94
2019-05-12T21:23:09.586Z,9.83
2019-05-12T21:28:11.541Z,9.77
2019-05-12T21:33:14.778Z,9.44
2019-05-12T21:38:24.398Z,9.30
2019-05-12T21:43:22.766Z,9.54
2019-05-12T21:48:29.200Z,9.46
2019-05-12T21:53:30.091Z,9.55
2019-05-12T21:58:32.013Z,8.89
2019-05-12T22:03:33.924Z,8.89
2019-05-12T22:08:35.880Z,8.89
2019-05-12T22:13:47.303Z,8.78
2019-05-12T22:18:43.834Z,8.93
2019-05-12T22:23:51.424Z,9.34
2019-05-12T22:28:50.952Z,9.34
2019-05-12T22:33:56.257Z,9.35
2019-05-12T22:39:00.995Z,9.10
2019-05-12T22:44:01.122Z,9.03
2019-05-12T22:49:04.188Z,9.31
2019-05-12T22:54:10.416Z,8.69
2019-05-12T22:59:10.178Z,8.92
2019-05-12T23:04:14.093Z,8.82
2019-05-12T23:09:19.367Z,8.52
2019-05-12T23:14:25.119Z,8.84
2019-05-12T23:19:28.169Z,8.60
2019-05-12T23:24:35.386Z,8.38
2019-05-12T23:29:34.016Z,8.36
2019-05-12T23:34:35.764Z,8.72
2019-05-12T23:39:39.909Z,8.76
2019-05-12T23:44:44.142Z,8.49
2019-05-12T23:49:45.996Z,8.40
2019-05-12T23:54:48.189Z,8.36
2019-05-12T23:59:50.000Z,8.48
